Time;durP1;ratioP1;P1;durP2;ratioP2;P2;SDS_P1;SDS_P2;PMS_P1;PMS_P2;Temp;Humidity;BMP_temperature;BMP_pressure;BME280_temperature;BME280_humidity;BME280_pressure;Samples;Min_cycle;Max_cycle;Signal;HPM_P1;HPM_P2
2022/01/12 00:01:20;;;;;;;10.07;7.33;;;5.90;99.90;;;;;;5055249;28;20438;-51
2022/01/12 00:03:46;;;;;;;8.73;7.03;;;5.90;99.90;;;;;;5054363;28;20434;-52
2022/01/12 00:06:13;;;;;;;10.90;6.57;;;5.90;99.90;;;;;;5053971;28;20450;-49
2022/01/12 00:08:39;;;;;;;10.87;7.47;;;5.80;99.90;;;;;;5037225;28;20440;-50
2022/01/12 00:11:05;;;;;;;8.83;7.13;;;5.90;99.90;;;;;;5055056;28;20500;-52
2022/01/12 00:13:34;;;;;;;9.97;7.40;;;5.80;99.90;;;;;;5053581;28;20847;-52
2022/01/12 00:16:02;;;;;;;8.33;6.77;;;5.70;99.90;;;;;;5050442;28;20496;-52
2022/01/12 00:18:28;;;;;;;10.83;6.90;;;5.90;99.90;;;;;;5052046;28;20439;-54
2022/01/12 00:20:54;;;;;;;11.00;7.07;;;5.80;99.90;;;;;;5051862;28;20464;-49
2022/01/12 00:23:21;;;;;;;10.33;7.27;;;5.70;99.90;;;;;;5050663;28;20473;-51
2022/01/12 00:34:03;;;;;;;9.73;7.10;;;6.00;99.90;;;;;;5053468;28;20925;-50
2022/01/12 00:36:29;;;;;;;10.87;7.07;;;5.90;99.90;;;;;;5049981;28;20492;-53
2022/01/12 00:38:55;;;;;;;10.00;6.93;;;5.80;99.90;;;;;;5056607;28;20413;-48
2022/01/12 00:41:21;;;;;;;10.60;6.90;;;5.80;99.90;;;;;;5051132;28;20453;-51
2022/01/12 00:43:50;;;;;;;10.63;7.47;;;5.90;99.90;;;;;;5035779;28;20244;-50
2022/01/12 00:46:16;;;;;;;8.90;6.60;;;5.90;99.90;;;;;;5054133;28;20452;-52
2022/01/12 00:48:42;;;;;;;11.10;7.53;;;5.80;99.90;;;;;;5051169;28;21030;-48
2022/01/12 00:51:10;;;;;;;9.13;7.03;;;5.80;99.90;;;;;;5055915;28;20502;-52
2022/01/12 00:53:37;;;;;;;8.13;6.90;;;5.90;99.90;;;;;;5052208;28;20856;-48
2022/01/12 00:56:03;;;;;;;9.47;6.70;;;5.90;99.90;;;;;;5050552;28;20537;-51
2022/01/12 00:58:28;;;;;;;8.83;6.80;;;5.80;99.90;;;;;;5050813;28;21031;-51
2022/01/12 01:00:54;;;;;;;10.00;8.10;;;5.80;99.90;;;;;;5047782;28;20542;-54
2022/01/12 01:03:20;;;;;;;9.20;7.43;;;5.90;99.90;;;;;;5054317;28;20204;-50
2022/01/12 01:05:45;;;;;;;11.23;7.77;;;5.90;99.90;;;;;;5052806;28;20706;-52
2022/01/12 01:08:11;;;;;;;9.77;7.83;;;5.90;99.90;;;;;;5053799;28;20679;-53
2022/01/12 01:13:08;;;;;;;10.83;6.97;;;5.50;99.90;;;;;;5051936;28;20275;-50
2022/01/12 01:26:26;;;;;;;16.13;7.97;;;5.50;99.90;;;;;;5055875;28;20672;-51
2022/01/12 01:28:51;;;;;;;10.57;8.50;;;5.00;99.90;;;;;;5051303;28;20931;-50
2022/01/12 01:31:19;;;;;;;11.50;8.90;;;5.20;99.90;;;;;;5052622;28;20198;-49
2022/01/12 01:33:45;;;;;;;9.30;7.50;;;5.20;99.90;;;;;;5054864;28;20197;-51
2022/01/12 01:36:11;;;;;;;13.10;8.03;;;5.20;99.90;;;;;;5053502;28;20449;-53
2022/01/12 01:38:36;;;;;;;12.33;7.77;;;5.20;99.90;;;;;;5052947;28;20215;-52
2022/01/12 01:41:02;;;;;;;12.33;7.90;;;5.20;99.90;;;;;;5050239;28;20700;-53
2022/01/12 01:43:44;;;;;;;9.80;7.60;;;5.20;99.90;;;;;;5054726;28;20256;-48
2022/01/12 01:54:23;;;;;;;10.90;7.70;;;5.40;99.90;;;;;;5053704;28;20480;-54
2022/01/12 01:56:48;;;;;;;10.90;8.27;;;5.40;99.90;;;;;;5055977;28;20885;-51
2022/01/12 01:59:14;;;;;;;10.40;7.60;;;5.40;99.90;;;;;;5056703;28;20290;-50
2022/01/12 02:01:39;;;;;;;9.40;6.83;;;5.40;99.90;;;;;;5041333;28;20233;-50
2022/01/12 02:04:06;;;;;;;14.67;8.23;;;5.20;99.90;;;;;;5035286;28;20246;-52
2022/01/12 02:06:31;;;;;;;13.13;7.83;;;5.20;99.90;;;;;;5042183;28;20198;-51
2022/01/12 02:08:57;;;;;;;10.60;7.73;;;5.30;99.90;;;;;;5055746;28;20448;-52
2022/01/12 02:11:27;;;;;;;12.87;7.47;;;5.20;99.90;;;;;;5055764;28;20180;-53
2022/01/12 02:13:54;;;;;;;12.33;8.30;;;5.10;99.90;;;;;;5055539;28;20237;-51
2022/01/12 02:16:26;;;;;;;10.77;8.50;;;5.00;99.90;;;;;;5054607;28;20476;-52
2022/01/12 02:35:44;;;;;;;14.13;8.77;;;4.60;99.90;;;;;;5055624;28;20864;-53
2022/01/12 02:40:55;;;;;;;14.20;8.70;;;4.50;99.90;;;;;;5036070;28;20500;-50
2022/01/12 02:43:41;;;;;;;12.80;9.30;;;4.30;99.90;;;;;;5055045;28;20950;-50
2022/01/12 02:53:49;;;;;;;13.77;9.47;;;4.10;99.90;;;;;;5054307;28;20540;-47
2022/01/12 02:56:27;;;;;;;12.27;8.23;;;4.00;99.90;;;;;;5051652;28;20856;-52
2022/01/12 02:58:55;;;;;;;12.83;8.90;;;4.20;99.90;;;;;;5054207;28;20443;-51
2022/01/12 03:03:59;;;;;;;14.20;8.43;;;4.40;99.90;;;;;;5055721;28;21025;-49
2022/01/12 03:06:31;;;;;;;10.47;8.17;;;4.20;99.90;;;;;;5037932;28;20477;-50
2022/01/12 03:08:57;;;;;;;12.40;8.17;;;4.30;99.90;;;;;;5054866;28;20475;-51
2022/01/12 03:11:24;;;;;;;13.30;9.10;;;4.30;99.90;;;;;;5054111;28;20490;-49
2022/01/12 03:13:51;;;;;;;12.10;8.00;;;4.10;99.90;;;;;;5054447;28;20437;-52
2022/01/12 03:16:20;;;;;;;13.97;10.13;;;4.10;99.90;;;;;;5055702;28;20446;-54
2022/01/12 03:18:53;;;;;;;17.23;8.47;;;4.30;99.90;;;;;;5055985;28;20441;-52
2022/01/12 03:21:23;;;;;;;11.53;8.43;;;4.40;99.90;;;;;;5058257;28;20516;-51
2022/01/12 03:23:50;;;;;;;11.50;8.97;;;4.40;99.90;;;;;;5051888;28;20537;-51
2022/01/12 03:26:16;;;;;;;15.37;9.70;;;4.50;99.90;;;;;;5055431;28;20499;-49
2022/01/12 03:28:43;;;;;;;13.50;9.47;;;4.40;99.90;;;;;;5052566;28;20438;-52
2022/01/12 03:31:18;;;;;;;13.27;8.60;;;4.10;99.90;;;;;;5052238;28;20433;-48
2022/01/12 03:38:56;;;;;;;10.70;8.07;;;4.10;99.90;;;;;;5054763;28;20190;-51
2022/01/12 03:41:23;;;;;;;11.47;8.63;;;4.20;99.90;;;;;;5052342;28;20432;-53
2022/01/12 03:43:49;;;;;;;11.30;8.67;;;4.40;99.90;;;;;;5055624;28;20578;-51
2022/01/12 03:46:17;;;;;;;14.17;8.43;;;4.40;99.90;;;;;;5054424;28;20519;-53
2022/01/12 03:48:43;;;;;;;13.07;9.20;;;4.20;99.90;;;;;;5052725;28;20449;-51
2022/01/12 03:51:08;;;;;;;11.27;8.27;;;4.20;99.90;;;;;;5054297;28;20450;-50
2022/01/12 03:53:34;;;;;;;11.90;8.73;;;4.20;99.90;;;;;;5051866;28;20598;-47
2022/01/12 03:56:00;;;;;;;12.73;8.77;;;4.10;99.90;;;;;;5054291;28;20213;-49
2022/01/12 03:58:25;;;;;;;12.53;9.13;;;4.10;99.90;;;;;;5054019;28;20641;-50
2022/01/12 04:00:51;;;;;;;15.20;9.17;;;4.20;99.90;;;;;;5053167;28;20206;-49
2022/01/12 04:03:17;;;;;;;11.20;8.20;;;4.30;99.90;;;;;;5059692;28;20301;-50
2022/01/12 04:08:22;;;;;;;11.53;7.90;;;4.20;99.90;;;;;;5056126;28;20615;-48
2022/01/12 04:11:00;;;;;;;14.80;8.50;;;4.00;99.90;;;;;;5055920;28;20778;-51
2022/01/12 04:13:30;;;;;;;14.47;8.50;;;3.90;99.90;;;;;;5055024;28;20444;-53
2022/01/12 04:15:59;;;;;;;14.00;9.27;;;3.80;99.90;;;;;;5052074;28;20470;-53
2022/01/12 04:18:25;;;;;;;13.30;8.07;;;4.00;99.90;;;;;;5053534;28;20454;-52
2022/01/12 04:20:51;;;;;;;11.57;8.20;;;4.10;99.90;;;;;;5052042;28;20449;-48
2022/01/12 04:23:21;;;;;;;12.07;8.60;;;4.10;99.90;;;;;;5056220;28;20550;-49
2022/01/12 04:25:58;;;;;;;13.70;9.13;;;3.90;99.90;;;;;;5051180;28;20561;-51
2022/01/12 04:28:26;;;;;;;10.33;7.43;;;4.10;99.90;;;;;;5053912;28;20430;-52
2022/01/12 04:30:53;;;;;;;13.33;9.00;;;4.10;99.90;;;;;;5055879;28;20441;-51
2022/01/12 04:33:20;;;;;;;10.20;7.57;;;4.00;99.90;;;;;;5051541;28;20459;-53
2022/01/12 04:35:53;;;;;;;12.00;8.47;;;4.10;99.90;;;;;;5054062;28;20815;-48
2022/01/12 04:38:22;;;;;;;12.27;8.73;;;3.90;99.90;;;;;;5052304;28;20491;-53
2022/01/12 04:40:48;;;;;;;12.63;8.70;;;3.90;99.90;;;;;;5052697;28;20594;-46
2022/01/12 04:43:14;;;;;;;13.00;9.33;;;4.00;99.90;;;;;;5052432;28;20598;-51
2022/01/12 04:50:46;;;;;;;11.83;8.47;;;4.10;99.90;;;;;;5052666;28;20442;-51
2022/01/12 04:53:13;;;;;;;12.97;9.60;;;4.10;99.90;;;;;;5054572;28;20445;-51
2022/01/12 04:55:39;;;;;;;14.03;8.97;;;4.10;99.90;;;;;;5052689;28;20466;-53
2022/01/12 04:58:06;;;;;;;13.13;8.90;;;4.10;99.90;;;;;;5051368;28;20528;-50
2022/01/12 05:00:33;;;;;;;12.37;8.77;;;4.10;99.90;;;;;;5037551;28;20489;-54
2022/01/12 05:13:45;;;;;;;17.70;8.70;;;3.90;99.90;;;;;;5053593;28;21808;-51
2022/01/12 05:16:11;;;;;;;14.90;9.57;;;3.90;99.90;;;;;;5049056;28;20810;-54
2022/01/12 05:18:39;;;;;;;12.33;8.97;;;3.40;99.90;;;;;;5051661;28;20436;-51
2022/01/12 05:21:05;;;;;;;14.63;9.90;;;3.40;99.90;;;;;;5053205;28;20314;-49
2022/01/12 05:23:32;;;;;;;13.67;9.20;;;3.40;99.90;;;;;;5053320;28;20680;-51
2022/01/12 05:25:58;;;;;;;12.47;9.10;;;3.30;99.90;;;;;;5052034;28;20446;-52
2022/01/12 05:28:25;;;;;;;12.70;9.03;;;3.20;99.90;;;;;;5053072;28;20449;-52
2022/01/12 05:30:52;;;;;;;14.67;9.57;;;3.20;99.90;;;;;;5049550;28;20450;-48
2022/01/12 05:33:18;;;;;;;14.53;8.67;;;3.40;99.90;;;;;;5053650;28;20925;-49
2022/01/12 05:35:44;;;;;;;12.83;9.47;;;3.50;99.90;;;;;;5058255;28;20473;-46
2022/01/12 05:38:12;;;;;;;13.87;9.70;;;3.30;99.90;;;;;;5052576;28;20442;-53
2022/01/12 05:40:45;;;;;;;13.17;9.33;;;3.20;99.90;;;;;;5053510;28;20198;-47
2022/01/12 05:43:10;;;;;;;15.17;9.40;;;3.30;99.90;;;;;;5056571;28;20861;-51
2022/01/12 05:45:39;;;;;;;14.10;10.10;;;3.50;99.90;;;;;;5049730;28;20464;-52
2022/01/12 05:50:38;;;;;;;14.67;8.70;;;3.80;99.90;;;;;;5055836;28;20961;-52
2022/01/12 05:53:03;;;;;;;13.70;9.03;;;3.70;99.90;;;;;;5053971;28;20437;-48
2022/01/12 05:55:29;;;;;;;15.10;9.70;;;3.70;99.90;;;;;;5054061;28;20587;-50
2022/01/12 05:57:55;;;;;;;12.53;9.03;;;3.60;99.90;;;;;;5049055;28;20190;-50
2022/01/12 06:00:23;;;;;;;12.13;9.20;;;3.70;99.90;;;;;;5053819;28;20971;-51
2022/01/12 06:02:49;;;;;;;12.43;9.03;;;3.60;99.90;;;;;;5056586;28;20592;-53
2022/01/12 06:05:15;;;;;;;10.97;8.87;;;3.30;99.90;;;;;;5052421;28;20449;-50
2022/01/12 06:07:42;;;;;;;12.63;9.73;;;3.40;99.90;;;;;;5053944;28;20568;-52
2022/01/12 06:10:08;;;;;;;12.50;9.47;;;3.40;99.90;;;;;;5054228;28;20448;-53
2022/01/12 06:12:34;;;;;;;16.47;11.00;;;3.30;99.90;;;;;;5056585;28;20436;-52
2022/01/12 06:15:00;;;;;;;15.10;10.80;;;3.00;99.90;;;;;;5050289;28;20446;-51
2022/01/12 06:17:25;;;;;;;18.30;11.00;;;2.90;99.90;;;;;;5053543;28;20601;-53
2022/01/12 06:19:51;;;;;;;17.63;11.00;;;3.20;99.90;;;;;;5051522;28;20194;-50
2022/01/12 06:22:17;;;;;;;17.00;9.00;;;3.10;99.90;;;;;;5050719;28;20323;-52
2022/01/12 06:24:42;;;;;;;13.67;10.23;;;3.00;99.90;;;;;;5054794;28;20270;-49
2022/01/12 06:27:10;;;;;;;14.70;10.17;;;3.10;99.90;;;;;;5053262;28;20204;-49
2022/01/12 06:29:42;;;;;;;15.43;10.10;;;3.10;99.90;;;;;;5052197;28;20180;-54
2022/01/12 06:32:08;;;;;;;15.93;10.07;;;2.80;99.90;;;;;;5051963;28;20429;-51
2022/01/12 06:34:34;;;;;;;17.20;11.87;;;2.90;99.90;;;;;;5051485;28;20445;-49
2022/01/12 06:37:00;;;;;;;16.20;10.83;;;3.10;99.90;;;;;;5056784;28;20832;-49
2022/01/12 06:39:26;;;;;;;17.20;11.17;;;3.00;99.90;;;;;;5053869;28;20190;-52
2022/01/12 06:41:53;;;;;;;14.63;11.17;;;2.80;99.90;;;;;;5059314;28;20543;-52
2022/01/12 06:44:20;;;;;;;17.00;10.63;;;2.90;99.90;;;;;;5057352;28;20817;-52
2022/01/12 06:46:47;;;;;;;14.70;11.00;;;2.80;99.90;;;;;;5058885;28;20472;-48
2022/01/12 06:49:15;;;;;;;16.77;11.37;;;3.00;99.90;;;;;;5057466;28;20475;-49
2022/01/12 06:51:42;;;;;;;15.87;11.10;;;3.10;99.90;;;;;;5052828;28;20452;-53
2022/01/12 06:54:08;;;;;;;18.30;11.23;;;3.20;99.90;;;;;;5039050;28;20487;-49
2022/01/12 06:56:34;;;;;;;16.50;11.20;;;3.30;99.90;;;;;;5054155;28;20477;-51
2022/01/12 06:59:00;;;;;;;22.47;12.30;;;3.00;99.90;;;;;;5055783;28;20433;-50
2022/01/12 07:01:26;;;;;;;14.63;11.33;;;3.00;99.90;;;;;;5053551;28;20195;-48
2022/01/12 07:03:52;;;;;;;13.90;10.40;;;2.60;99.90;;;;;;5056089;28;20435;-48
2022/01/12 07:06:18;;;;;;;16.73;11.30;;;2.50;99.90;;;;;;5054338;28;20550;-51
2022/01/12 07:08:44;;;;;;;13.50;10.17;;;2.90;99.90;;;;;;5053650;28;20565;-48
2022/01/12 07:11:09;;;;;;;14.97;10.67;;;3.10;99.90;;;;;;5058220;28;20448;-51
2022/01/12 07:13:35;;;;;;;16.23;11.10;;;3.10;99.90;;;;;;5054501;28;20682;-48
2022/01/12 07:16:00;;;;;;;15.20;11.07;;;3.30;99.90;;;;;;5051214;28;20218;-50
2022/01/12 07:18:29;;;;;;;16.50;12.33;;;3.40;99.90;;;;;;5053431;28;20495;-47
2022/01/12 07:20:58;;;;;;;17.53;12.10;;;3.40;99.90;;;;;;5055403;28;20591;-51
2022/01/12 07:23:24;;;;;;;13.27;10.43;;;3.40;99.90;;;;;;5056440;28;20541;-51
2022/01/12 07:25:50;;;;;;;17.53;11.50;;;3.20;99.90;;;;;;5055908;28;20446;-52
2022/01/12 07:28:16;;;;;;;15.30;10.40;;;3.30;99.90;;;;;;5055750;28;21015;-50
2022/01/12 07:30:42;;;;;;;14.40;10.50;;;3.40;99.90;;;;;;5039144;28;20172;-48
2022/01/12 07:33:07;;;;;;;14.37;10.60;;;3.40;99.90;;;;;;5046738;28;20195;-49
2022/01/12 07:35:33;;;;;;;13.30;9.77;;;3.30;99.90;;;;;;5050070;28;20211;-51
2022/01/12 07:37:58;;;;;;;14.60;10.47;;;3.40;99.90;;;;;;5055942;28;20183;-54
2022/01/12 07:40:24;;;;;;;14.87;11.43;;;3.50;99.90;;;;;;5055729;28;20185;-51
2022/01/12 07:42:51;;;;;;;16.17;10.83;;;3.50;99.90;;;;;;5046802;28;20235;-48
2022/01/12 07:45:17;;;;;;;16.50;10.30;;;3.50;99.90;;;;;;5054157;28;20228;-49
2022/01/12 07:47:43;;;;;;;13.80;10.40;;;3.50;99.90;;;;;;5055891;28;20418;-52
2022/01/12 07:50:10;;;;;;;16.20;11.00;;;3.60;99.90;;;;;;5053904;28;20477;-50
2022/01/12 07:52:36;;;;;;;14.17;10.93;;;3.60;99.90;;;;;;5056457;28;20438;-47
2022/01/12 07:55:03;;;;;;;16.13;11.70;;;3.60;99.90;;;;;;5054766;28;20525;-50
2022/01/12 07:57:28;;;;;;;17.87;11.57;;;3.60;99.90;;;;;;5052810;28;20460;-52
2022/01/12 07:59:54;;;;;;;18.77;11.60;;;3.70;99.90;;;;;;5054324;28;20437;-49
2022/01/12 08:02:20;;;;;;;17.63;11.80;;;3.60;99.90;;;;;;5054447;28;20207;-49
2022/01/12 08:04:46;;;;;;;15.60;11.30;;;3.70;99.90;;;;;;5054217;28;20659;-51
2022/01/12 08:07:11;;;;;;;15.30;11.03;;;3.70;99.90;;;;;;5055722;28;20230;-53
2022/01/12 08:09:38;;;;;;;15.43;11.47;;;3.70;99.90;;;;;;5055936;28;20620;-49
2022/01/12 08:12:05;;;;;;;16.00;10.43;;;3.80;99.90;;;;;;5055988;28;20268;-52
2022/01/12 08:14:30;;;;;;;15.67;10.40;;;3.90;99.90;;;;;;5056789;28;20444;-48
2022/01/12 08:16:57;;;;;;;15.47;10.40;;;3.90;99.90;;;;;;5051338;28;21231;-47
2022/01/12 08:19:24;;;;;;;19.80;11.80;;;3.90;99.90;;;;;;5050303;28;20477;-48
2022/01/12 08:21:50;;;;;;;14.97;10.73;;;3.90;99.90;;;;;;5052684;28;20222;-51
2022/01/12 08:24:16;;;;;;;18.43;12.67;;;3.90;99.90;;;;;;5050575;28;20422;-48
2022/01/12 08:26:43;;;;;;;16.80;11.30;;;3.90;99.90;;;;;;5049345;28;20578;-48
2022/01/12 08:29:11;;;;;;;14.97;11.03;;;3.80;99.90;;;;;;5055008;28;20822;-51
2022/01/12 08:31:37;;;;;;;19.60;11.40;;;3.80;99.90;;;;;;5052757;28;20503;-47
2022/01/12 08:34:03;;;;;;;16.90;11.23;;;3.90;99.90;;;;;;5055040;28;20506;-48
2022/01/12 08:36:29;;;;;;;15.27;12.00;;;3.70;99.90;;;;;;5050917;28;20465;-53
2022/01/12 08:38:55;;;;;;;17.20;13.60;;;3.80;99.90;;;;;;5053647;28;20477;-50
2022/01/12 08:41:21;;;;;;;13.17;10.73;;;3.60;99.90;;;;;;5051706;28;20974;-49
2022/01/12 08:43:48;;;;;;;14.57;11.53;;;3.60;99.90;;;;;;5052770;28;20560;-53
2022/01/12 08:46:13;;;;;;;21.93;12.43;;;3.60;99.90;;;;;;5055103;28;20860;-48
2022/01/12 08:48:39;;;;;;;12.33;10.90;;;3.70;99.90;;;;;;5055672;28;20438;-49
2022/01/12 08:51:05;;;;;;;16.30;11.87;;;3.70;99.90;;;;;;5053655;28;20190;-50
2022/01/12 08:53:31;;;;;;;17.27;12.60;;;3.80;99.90;;;;;;5050235;28;20617;-53
2022/01/12 08:55:56;;;;;;;16.00;11.90;;;3.90;99.90;;;;;;5052639;28;20218;-52
2022/01/12 08:58:22;;;;;;;21.60;11.60;;;3.60;99.90;;;;;;5049815;28;20197;-52
2022/01/12 09:00:48;;;;;;;18.80;12.77;;;3.60;99.90;;;;;;5050443;28;20205;-52
2022/01/12 09:03:13;;;;;;;17.37;12.93;;;3.60;99.90;;;;;;5051423;28;20211;-46
2022/01/12 09:05:39;;;;;;;15.40;12.20;;;3.90;99.90;;;;;;5049341;28;20472;-50
2022/01/12 09:08:06;;;;;;;15.03;11.53;;;3.90;99.90;;;;;;5052855;28;20620;-52
2022/01/12 09:10:32;;;;;;;14.93;10.80;;;3.90;99.90;;;;;;5053246;28;20453;-49
2022/01/12 09:12:58;;;;;;;16.83;11.97;;;3.90;99.90;;;;;;5055109;28;20441;-48
2022/01/12 09:15:25;;;;;;;14.83;11.63;;;3.80;99.90;;;;;;5034918;28;20453;-49
2022/01/12 09:17:52;;;;;;;14.70;11.10;;;3.70;99.90;;;;;;5053600;28;20591;-52
2022/01/12 09:20:19;;;;;;;17.83;12.00;;;3.80;99.90;;;;;;5053182;28;20430;-48
2022/01/12 09:22:44;;;;;;;14.73;11.87;;;3.90;99.90;;;;;;5037477;28;20510;-49
2022/01/12 09:25:10;;;;;;;14.57;11.60;;;4.00;99.90;;;;;;5051150;28;21536;-51
2022/01/12 09:27:38;;;;;;;14.63;10.53;;;4.00;99.90;;;;;;5053364;28;20275;-47
2022/01/12 09:30:06;;;;;;;13.27;10.33;;;3.90;99.90;;;;;;5051721;28;20475;-48
2022/01/12 09:32:32;;;;;;;15.00;10.60;;;4.00;99.90;;;;;;5057315;28;20495;-48
2022/01/12 09:34:57;;;;;;;15.70;10.93;;;4.00;99.90;;;;;;5053046;28;20450;-46
2022/01/12 09:37:23;;;;;;;12.80;10.00;;;4.10;99.90;;;;;;5053721;28;20218;-49
2022/01/12 09:39:49;;;;;;;18.57;12.67;;;4.10;99.90;;;;;;5053440;28;20274;-52
2022/01/12 09:42:15;;;;;;;12.40;10.70;;;4.10;99.90;;;;;;5052597;28;20293;-50
2022/01/12 09:44:46;;;;;;;14.23;11.27;;;4.20;99.90;;;;;;5051527;28;20210;-53
2022/01/12 09:47:12;;;;;;;15.10;11.83;;;4.30;99.90;;;;;;5053377;28;20460;-47
2022/01/12 09:49:38;;;;;;;17.27;12.37;;;4.30;99.90;;;;;;5049882;28;20854;-46
2022/01/12 09:52:04;;;;;;;16.80;11.03;;;4.30;99.90;;;;;;5054526;28;20441;-54
2022/01/12 09:54:30;;;;;;;14.10;12.03;;;4.50;99.90;;;;;;5034033;28;20460;-52
2022/01/12 09:56:57;;;;;;;16.60;11.60;;;4.60;99.90;;;;;;5052128;28;20466;-50
2022/01/12 09:59:23;;;;;;;13.33;11.07;;;4.50;99.90;;;;;;5047518;28;20841;-50
2022/01/12 10:01:49;;;;;;;16.20;11.93;;;4.60;99.90;;;;;;5052693;28;20860;-50
2022/01/12 10:04:18;;;;;;;17.33;11.43;;;4.60;99.90;;;;;;5050831;28;20436;-52
2022/01/12 10:06:50;;;;;;;14.37;11.27;;;4.70;99.90;;;;;;5050976;28;20500;-49
2022/01/12 10:09:20;;;;;;;15.87;12.13;;;4.70;99.90;;;;;;5050134;28;20860;-48
2022/01/12 10:11:57;;;;;;;12.30;10.23;;;4.80;99.90;;;;;;5053240;28;21093;-52
2022/01/12 10:14:24;;;;;;;13.77;11.43;;;4.80;99.90;;;;;;5051796;28;20425;-49
2022/01/12 10:16:57;;;;;;;17.43;11.37;;;4.90;99.90;;;;;;5056639;28;20450;-48
2022/01/12 10:19:29;;;;;;;14.50;10.40;;;4.80;99.90;;;;;;5055638;28;20453;-47
2022/01/12 10:21:56;;;;;;;14.00;10.80;;;4.80;99.90;;;;;;5057170;28;20568;-52
2022/01/12 10:24:22;;;;;;;16.50;11.93;;;4.80;99.90;;;;;;5050380;28;20433;-52
2022/01/12 10:26:48;;;;;;;22.87;12.13;;;4.80;99.90;;;;;;5056308;28;20456;-51
2022/01/12 10:29:27;;;;;;;15.80;11.40;;;4.70;99.90;;;;;;5046159;28;20937;-49
2022/01/12 10:31:57;;;;;;;13.07;10.63;;;4.70;99.90;;;;;;5053318;28;20444;-49
2022/01/12 10:34:26;;;;;;;12.70;10.67;;;4.90;99.90;;;;;;5053677;28;20461;-53
2022/01/12 10:36:54;;;;;;;16.47;10.80;;;4.90;99.90;;;;;;5056708;28;20841;-53
2022/01/12 10:39:22;;;;;;;13.27;10.23;;;4.90;99.90;;;;;;5052582;28;20794;-49
2022/01/12 10:41:59;;;;;;;13.37;10.40;;;5.10;99.90;;;;;;5053367;28;20495;-48
2022/01/12 10:44:32;;;;;;;13.77;11.10;;;5.00;99.90;;;;;;5054821;28;20441;-52
2022/01/12 10:47:21;;;;;;;12.60;10.47;;;5.10;99.90;;;;;;5053859;28;20522;-51
2022/01/12 10:49:55;;;;;;;14.67;10.87;;;5.10;99.90;;;;;;5036187;28;20730;-54
2022/01/12 10:52:48;;;;;;;14.37;11.60;;;5.20;99.90;;;;;;5053296;28;21044;-51
2022/01/12 10:55:17;;;;;;;15.77;9.73;;;5.20;99.90;;;;;;5042071;28;20473;-52
2022/01/12 10:57:46;;;;;;;17.60;9.63;;;5.20;99.90;;;;;;5053824;28;20449;-50
2022/01/12 11:00:23;;;;;;;14.37;10.27;;;5.10;99.90;;;;;;5052991;28;20457;-54
2022/01/12 11:02:54;;;;;;;22.00;15.20;;;5.10;99.90;;;;;;5038571;28;20945;-50
2022/01/12 11:05:22;;;;;;;14.50;10.47;;;5.20;99.90;;;;;;5048054;28;20450;-50
2022/01/12 11:07:49;;;;;;;13.60;9.50;;;5.30;99.90;;;;;;5052439;28;20437;-52
2022/01/12 11:10:15;;;;;;;13.47;9.60;;;5.20;99.90;;;;;;5053999;28;21096;-51
2022/01/12 11:12:42;;;;;;;12.10;9.13;;;5.30;99.90;;;;;;5049982;28;20438;-54
2022/01/12 11:15:10;;;;;;;14.07;10.23;;;5.40;99.90;;;;;;5052008;28;20436;-51
2022/01/12 11:17:38;;;;;;;14.20;9.53;;;5.40;99.90;;;;;;5049715;28;20477;-54
2022/01/12 11:20:16;;;;;;;13.67;10.37;;;5.60;99.90;;;;;;5050312;28;20782;-52
2022/01/12 11:23:11;;;;;;;11.63;9.00;;;5.60;99.90;;;;;;5050762;28;20475;-52
2022/01/12 11:25:40;;;;;;;10.80;7.97;;;5.60;99.90;;;;;;5052477;28;20472;-53
2022/01/12 11:28:27;;;;;;;13.27;9.70;;;5.70;99.90;;;;;;5053940;28;20922;-54
2022/01/12 11:30:55;;;;;;;20.20;11.03;;;5.70;99.90;;;;;;5034974;28;20494;-52
2022/01/12 11:33:23;;;;;;;10.07;9.00;;;5.60;99.90;;;;;;5052825;28;20438;-49
2022/01/12 11:35:51;;;;;;;10.23;8.70;;;5.60;99.90;;;;;;5051782;28;20483;-53
2022/01/12 11:38:29;;;;;;;11.57;8.47;;;5.50;99.90;;;;;;5037572;28;20437;-52
2022/01/12 11:41:07;;;;;;;10.07;8.20;;;5.40;99.90;;;;;;5053563;28;20514;-50
2022/01/12 11:43:50;;;;;;;11.27;8.07;;;5.40;99.90;;;;;;5053752;28;20465;-55
2022/01/12 11:46:25;;;;;;;13.80;8.00;;;5.40;99.90;;;;;;5051402;28;20456;-52
2022/01/12 11:48:56;;;;;;;14.87;8.80;;;5.60;99.90;;;;;;5056047;28;20486;-53
2022/01/12 11:51:36;;;;;;;10.17;8.20;;;5.70;99.90;;;;;;5053534;28;20460;-50
2022/01/12 11:54:17;;;;;;;10.03;7.60;;;5.60;99.90;;;;;;5037829;28;20434;-50
2022/01/12 11:56:53;;;;;;;9.17;7.27;;;5.70;99.90;;;;;;5051503;28;20742;-55
2022/01/12 11:59:20;;;;;;;9.40;8.20;;;5.90;99.90;;;;;;5055496;28;20997;-52
2022/01/12 12:01:51;;;;;;;10.07;8.10;;;6.20;99.90;;;;;;5052906;28;20438;-53
2022/01/12 12:04:29;;;;;;;8.93;7.83;;;6.60;99.90;;;;;;5050891;28;20442;-52
2022/01/12 12:07:23;;;;;;;11.47;7.97;;;6.80;99.90;;;;;;5050229;28;20453;-50
2022/01/12 12:09:53;;;;;;;7.87;7.10;;;7.40;99.90;;;;;;5051689;28;20445;-56
2022/01/12 12:12:34;;;;;;;12.03;8.23;;;8.20;99.90;;;;;;5052670;28;20556;-50
2022/01/12 12:15:03;;;;;;;9.27;7.83;;;8.60;99.90;;;;;;5052513;28;20791;-56
2022/01/12 12:17:31;;;;;;;13.57;9.27;;;9.00;99.90;;;;;;5050848;28;20444;-51
2022/01/12 12:19:57;;;;;;;9.83;7.70;;;9.60;99.90;;;;;;5051884;28;20943;-51
2022/01/12 12:22:31;;;;;;;11.07;8.80;;;9.80;99.90;;;;;;5052958;28;20468;-54
2022/01/12 12:25:01;;;;;;;12.23;7.80;;;10.50;99.90;;;;;;5052778;28;20526;-53
2022/01/12 12:27:28;;;;;;;9.83;8.70;;;11.00;99.90;;;;;;5051919;28;20542;-50
2022/01/12 12:29:55;;;;;;;9.37;8.47;;;12.00;99.90;;;;;;5053469;28;20450;-47
2022/01/12 12:32:38;;;;;;;8.43;7.53;;;13.40;99.90;;;;;;5052098;28;20434;-48
2022/01/12 12:35:25;;;;;;;9.40;8.03;;;14.10;95.90;;;;;;5054172;28;20501;-46
2022/01/12 12:38:08;;;;;;;9.63;8.53;;;15.40;91.00;;;;;;5052708;28;20445;-49
2022/01/12 12:40:38;;;;;;;8.33;7.53;;;16.50;83.60;;;;;;5052819;28;20986;-49
2022/01/12 12:43:26;;;;;;;9.30;8.40;;;16.80;76.40;;;;;;5050171;28;20802;-49
2022/01/12 12:46:02;;;;;;;9.10;8.10;;;17.10;71.70;;;;;;5052776;28;20556;-46
2022/01/12 12:48:31;;;;;;;11.07;9.20;;;17.70;67.10;;;;;;5053022;28;20433;-46
2022/01/12 12:51:09;;;;;;;9.63;8.63;;;17.60;66.80;;;;;;5048071;28;20440;-49
2022/01/12 12:53:37;;;;;;;9.83;8.83;;;17.90;63.10;;;;;;5049663;28;20449;-49
2022/01/12 12:56:06;;;;;;;9.80;8.80;;;18.10;60.30;;;;;;5050023;28;20467;-50
2022/01/12 12:58:34;;;;;;;9.57;8.57;;;17.90;59.30;;;;;;5050243;28;20448;-50
2022/01/12 13:01:07;;;;;;;8.70;7.90;;;18.20;59.00;;;;;;5053096;28;20437;-50
2022/01/12 13:03:35;;;;;;;10.10;9.10;;;18.30;58.30;;;;;;5052827;28;20535;-49
2022/01/12 13:06:00;;;;;;;9.70;8.80;;;18.30;57.80;;;;;;5034890;28;20468;-47
2022/01/12 13:08:26;;;;;;;9.60;8.70;;;17.60;57.10;;;;;;5051680;28;20422;-50
2022/01/12 13:10:52;;;;;;;9.83;8.77;;;17.20;57.50;;;;;;5048353;28;20285;-48
2022/01/12 13:13:18;;;;;;;10.10;8.90;;;16.60;57.30;;;;;;5048955;28;20194;-50
2022/01/12 13:15:45;;;;;;;9.00;8.10;;;16.30;58.00;;;;;;5042300;28;20258;-51
2022/01/12 13:18:17;;;;;;;9.57;8.60;;;15.70;58.50;;;;;;5044721;28;20883;-51
2022/01/12 13:21:07;;;;;;;9.70;8.70;;;15.40;59.20;;;;;;5026248;28;20422;-49
2022/01/12 13:23:43;;;;;;;9.63;8.63;;;15.10;60.40;;;;;;5033885;28;22382;-48
2022/01/12 13:26:12;;;;;;;19.43;10.30;;;15.00;60.10;;;;;;5025934;28;20449;-47
2022/01/12 13:28:40;;;;;;;9.90;8.93;;;14.90;60.60;;;;;;5048861;28;20461;-47
2022/01/12 13:31:11;;;;;;;9.50;8.50;;;14.50;61.30;;;;;;5048328;28;20442;-48
2022/01/12 13:33:42;;;;;;;11.27;10.07;;;14.40;61.40;;;;;;5051097;28;20456;-51
2022/01/12 13:36:14;;;;;;;10.53;9.30;;;13.40;62.20;;;;;;5051430;28;20633;-48
2022/01/12 13:38:41;;;;;;;10.23;9.17;;;13.10;63.90;;;;;;5051042;28;20796;-48
2022/01/12 13:41:09;;;;;;;11.20;10.10;;;12.40;66.00;;;;;;5048424;28;20444;-49
2022/01/12 13:43:36;;;;;;;10.43;9.43;;;11.80;68.00;;;;;;5034994;28;21377;-46
2022/01/12 13:46:13;;;;;;;14.20;9.80;;;11.50;69.50;;;;;;5051118;28;20446;-53
2022/01/12 13:48:43;;;;;;;9.80;8.80;;;11.20;70.10;;;;;;5052548;28;20448;-51
2022/01/12 13:51:09;;;;;;;11.50;9.10;;;10.80;71.60;;;;;;5054061;28;20469;-53
2022/01/12 13:53:39;;;;;;;10.67;8.93;;;10.70;72.20;;;;;;5048087;28;21563;-55
2022/01/12 13:56:08;;;;;;;11.37;9.73;;;10.60;73.10;;;;;;5020669;28;20470;-52
2022/01/12 13:58:36;;;;;;;11.90;9.77;;;10.20;74.10;;;;;;5049407;28;20449;-54
2022/01/12 14:01:07;;;;;;;10.80;9.50;;;9.70;76.40;;;;;;5050469;28;20449;-53
2022/01/12 14:03:41;;;;;;;10.50;9.00;;;9.70;78.10;;;;;;5040718;28;20468;-52
2022/01/12 14:06:18;;;;;;;12.10;9.37;;;9.90;78.30;;;;;;5050466;28;20456;-51
2022/01/12 14:08:55;;;;;;;13.20;9.10;;;9.90;78.00;;;;;;5032072;28;20538;-52
2022/01/12 14:11:22;;;;;;;11.00;9.23;;;9.90;78.80;;;;;;5051042;28;20432;-54
2022/01/12 14:13:48;;;;;;;11.43;9.43;;;9.50;79.60;;;;;;5050228;28;20434;-57
2022/01/12 14:16:14;;;;;;;11.17;9.63;;;9.20;80.90;;;;;;5049104;28;20453;-55